createdAt,value
2022-10-02T00:01:21.782Z,1.50
2022-10-02T00:03:49.811Z,2.07
2022-10-02T00:06:19.444Z,2.17
2022-10-02T00:08:49.770Z,1.50
2022-10-02T00:11:19.691Z,1.30
2022-10-02T00:13:49.177Z,1.10
2022-10-02T00:16:21.894Z,1.03
2022-10-02T00:18:49.955Z,1.30
2022-10-02T00:21:25.476Z,1.40
2022-10-02T00:23:56.934Z,0.90
2022-10-02T00:26:26.016Z,1.07
2022-10-02T00:28:56.281Z,1.03
2022-10-02T00:31:29.503Z,1.23
2022-10-02T00:34:05.413Z,1.47
2022-10-02T00:36:38.204Z,1.20
2022-10-02T00:39:12.893Z,1.40
2022-10-02T00:42:03.982Z,1.30
2022-10-02T00:44:41.717Z,1.40
2022-10-02T00:47:12.624Z,1.13
2022-10-02T00:49:44.719Z,1.30
2022-10-02T00:52:21.948Z,1.20
2022-10-02T00:54:54.362Z,1.10
2022-10-02T00:57:26.401Z,1.10
2022-10-02T01:00:00.413Z,1.30
2022-10-02T01:02:44.321Z,1.17
2022-10-02T01:05:12.173Z,1.23
2022-10-02T01:07:41.043Z,1.30
2022-10-02T01:10:11.300Z,1.27
2022-10-02T01:12:39.567Z,1.27
2022-10-02T01:15:11.898Z,1.37
2022-10-02T01:17:39.446Z,1.27
2022-10-02T01:20:08.205Z,1.40
2022-10-02T01:22:39.721Z,1.10
2022-10-02T01:25:09.184Z,1.33
2022-10-02T01:27:39.390Z,1.40
2022-10-02T01:30:08.428Z,1.50
2022-10-02T01:32:36.712Z,1.50
2022-10-02T01:35:05.628Z,1.37
2022-10-02T01:37:35.124Z,1.77
2022-10-02T01:40:07.750Z,1.57
2022-10-02T01:42:36.704Z,1.83
2022-10-02T01:45:05.284Z,1.30
2022-10-02T01:47:36.582Z,1.60
2022-10-02T01:50:10.188Z,1.47
2022-10-02T01:52:48.006Z,1.47
2022-10-02T01:55:23.145Z,1.77
2022-10-02T01:57:57.268Z,1.20
2022-10-02T02:00:26.587Z,1.50
2022-10-02T02:02:57.885Z,1.73
2022-10-02T02:05:31.314Z,1.40
2022-10-02T02:08:06.011Z,1.20
2022-10-02T02:10:40.290Z,1.47
2022-10-02T02:13:12.368Z,1.60
2022-10-02T02:15:42.363Z,1.43
2022-10-02T02:18:12.579Z,1.60
2022-10-02T02:20:44.097Z,1.43
2022-10-02T02:23:15.064Z,1.50
2022-10-02T02:25:45.149Z,1.60
2022-10-02T02:28:16.111Z,1.63
2022-10-02T02:30:46.396Z,1.53
2022-10-02T02:33:18.193Z,1.80
2022-10-02T02:35:47.804Z,1.37
2022-10-02T02:38:17.521Z,1.43
2022-10-02T02:40:45.764Z,1.80
2022-10-02T02:43:17.897Z,1.40
2022-10-02T02:45:48.715Z,1.73
2022-10-02T02:48:19.038Z,1.60
2022-10-02T02:50:48.414Z,1.60
2022-10-02T02:53:18.816Z,1.43
2022-10-02T02:55:48.383Z,1.37
2022-10-02T02:58:19.430Z,1.30
2022-10-02T03:00:47.157Z,1.40
2022-10-02T03:03:14.757Z,1.30
2022-10-02T03:05:44.062Z,1.30
2022-10-02T03:08:16.457Z,1.60
2022-10-02T03:10:50.138Z,1.37
2022-10-02T03:13:27.257Z,1.70
2022-10-02T03:16:00.241Z,1.37
2022-10-02T03:18:33.158Z,1.30
2022-10-02T03:21:06.417Z,1.33
2022-10-02T03:23:37.799Z,1.40
2022-10-02T03:26:09.461Z,1.10
2022-10-02T03:28:55.557Z,1.00
2022-10-02T03:31:25.341Z,1.00
2022-10-02T03:33:53.604Z,1.20
2022-10-02T03:36:22.516Z,1.10
2022-10-02T03:39:12.647Z,1.40
2022-10-02T03:41:38.097Z,1.40
2022-10-02T03:44:06.997Z,1.40
2022-10-02T03:46:34.833Z,1.50
2022-10-02T03:49:02.805Z,1.27
2022-10-02T03:51:30.895Z,1.60
2022-10-02T03:53:58.452Z,1.50
2022-10-02T03:56:30.961Z,1.40
2022-10-02T03:59:00.744Z,1.40
2022-10-02T04:01:33.583Z,1.20
2022-10-02T04:04:04.838Z,1.27
2022-10-02T04:06:38.702Z,1.03
2022-10-02T04:09:10.161Z,1.10
2022-10-02T04:11:39.692Z,1.20
2022-10-02T04:14:10.621Z,0.97
2022-10-02T04:16:41.788Z,0.87
2022-10-02T04:19:12.614Z,1.10
2022-10-02T04:21:43.148Z,1.10
2022-10-02T04:24:19.260Z,1.30
2022-10-02T04:26:48.420Z,1.23
2022-10-02T04:29:19.846Z,1.17
2022-10-02T04:31:51.857Z,1.50
2022-10-02T04:34:19.457Z,0.80
2022-10-02T04:36:53.506Z,1.00
2022-10-02T04:39:46.610Z,2.50
2022-10-02T04:42:23.496Z,2.30
2022-10-02T04:44:57.627Z,2.10
2022-10-02T04:47:38.403Z,2.03
2022-10-02T04:50:17.344Z,1.93
2022-10-02T04:52:58.237Z,2.03
2022-10-02T04:55:32.829Z,2.00
2022-10-02T04:58:12.116Z,1.90
2022-10-02T05:00:44.469Z,1.90
2022-10-02T05:03:28.025Z,1.93
2022-10-02T05:06:02.230Z,1.67
2022-10-02T05:08:36.991Z,1.60
2022-10-02T05:11:08.564Z,1.93
2022-10-02T05:13:41.396Z,2.77
2022-10-02T05:16:21.949Z,2.90
2022-10-02T05:19:03.538Z,3.03
2022-10-02T05:21:41.357Z,2.60
2022-10-02T05:24:21.538Z,2.60
2022-10-02T05:27:03.741Z,2.27
2022-10-02T05:29:38.558Z,2.20
2022-10-02T05:32:15.607Z,2.00
2022-10-02T05:34:50.980Z,2.20
2022-10-02T05:37:24.413Z,2.10
2022-10-02T05:39:54.671Z,2.00
2022-10-02T05:42:25.268Z,2.00
2022-10-02T05:44:55.588Z,1.90
2022-10-02T05:47:26.040Z,1.97
2022-10-02T05:49:59.361Z,1.77
2022-10-02T05:52:28.138Z,1.67
2022-10-02T05:54:58.531Z,1.60
2022-10-02T05:57:29.260Z,1.77
2022-10-02T06:00:06.248Z,1.70
2022-10-02T06:02:43.028Z,1.53
2022-10-02T06:05:18.059Z,1.30
2022-10-02T06:07:47.935Z,1.20
2022-10-02T06:10:18.442Z,1.23
2022-10-02T06:12:50.024Z,1.20
2022-10-02T06:15:22.573Z,1.10
2022-10-02T06:17:52.850Z,1.50
2022-10-02T06:20:23.568Z,1.60
2022-10-02T06:22:53.297Z,1.30
2022-10-02T06:25:22.566Z,1.40
2022-10-02T06:27:53.296Z,1.10
2022-10-02T06:30:21.432Z,1.10
2022-10-02T06:32:52.641Z,1.00
2022-10-02T06:35:27.807Z,1.03
2022-10-02T06:38:01.481Z,1.07
2022-10-02T06:40:51.456Z,1.03
2022-10-02T06:43:23.139Z,0.93
2022-10-02T06:45:58.252Z,1.00
2022-10-02T06:48:26.642Z,1.07
2022-10-02T06:50:59.812Z,1.00
2022-10-02T06:53:34.456Z,1.10
2022-10-02T06:56:07.387Z,1.10
2022-10-02T06:58:46.696Z,1.10
2022-10-02T07:01:19.961Z,1.23
2022-10-02T07:04:04.057Z,1.10
2022-10-02T07:06:36.822Z,1.03
2022-10-02T07:09:14.056Z,1.10
2022-10-02T07:11:44.407Z,1.03
2022-10-02T07:14:19.466Z,0.80
2022-10-02T07:17:01.866Z,0.70
2022-10-02T07:19:41.003Z,0.70
2022-10-02T07:22:42.929Z,0.80
2022-10-02T07:25:16.311Z,0.90
2022-10-02T07:27:48.547Z,1.00
2022-10-02T07:30:17.321Z,0.70
2022-10-02T07:32:48.432Z,0.70
2022-10-02T07:35:21.540Z,0.80
2022-10-02T07:37:52.444Z,0.80
2022-10-02T07:40:28.854Z,0.77
2022-10-02T07:43:14.272Z,0.80
2022-10-02T07:45:42.602Z,0.70
2022-10-02T07:48:43.065Z,0.83
2022-10-02T07:51:31.604Z,0.90
2022-10-02T07:54:05.821Z,0.53
2022-10-02T07:56:35.523Z,0.60
2022-10-02T07:59:07.781Z,0.70
2022-10-02T08:01:37.513Z,0.50
2022-10-02T08:04:06.066Z,0.80
2022-10-02T08:06:34.736Z,0.90
2022-10-02T08:09:09.045Z,0.80
2022-10-02T08:11:40.453Z,0.60
2022-10-02T08:14:11.381Z,0.70
2022-10-02T08:16:41.646Z,0.50
2022-10-02T08:19:13.732Z,0.80
2022-10-02T08:21:43.240Z,0.60
2022-10-02T08:24:14.597Z,0.70
2022-10-02T08:26:46.125Z,0.60
2022-10-02T08:29:17.989Z,0.50
2022-10-02T08:31:45.985Z,0.70
2022-10-02T08:34:17.069Z,0.60
2022-10-02T08:36:51.397Z,0.67
2022-10-02T08:39:33.031Z,0.50
2022-10-02T08:42:13.489Z,0.60
2022-10-02T08:44:58.902Z,0.50
2022-10-02T08:47:50.449Z,0.60
2022-10-02T08:50:44.808Z,0.50
2022-10-02T08:53:30.007Z,0.70
2022-10-02T08:56:19.963Z,0.50
2022-10-02T08:59:21.409Z,0.60
2022-10-02T09:02:16.945Z,0.60
2022-10-02T09:05:02.122Z,0.70
2022-10-02T09:07:48.081Z,0.70
2022-10-02T09:10:28.540Z,0.60
2022-10-02T09:13:26.032Z,0.60
2022-10-02T09:16:03.415Z,0.57
2022-10-02T09:18:42.297Z,0.83
2022-10-02T09:21:15.719Z,0.70
2022-10-02T09:24:09.627Z,0.80
2022-10-02T09:26:52.906Z,0.53
2022-10-02T09:29:38.124Z,0.43
2022-10-02T09:32:21.709Z,0.60
2022-10-02T09:35:06.025Z,0.70
2022-10-02T09:37:45.097Z,0.57
2022-10-02T09:40:28.263Z,0.50
2022-10-02T09:43:10.649Z,0.60
2022-10-02T09:45:53.002Z,0.60
2022-10-02T09:48:43.014Z,0.60
2022-10-02T09:51:31.416Z,0.57
2022-10-02T09:54:11.032Z,0.60
2022-10-02T09:57:06.866Z,0.60
2022-10-02T09:59:52.158Z,0.50
2022-10-02T10:02:40.133Z,0.50
2022-10-02T10:05:16.905Z,0.50
2022-10-02T10:07:56.082Z,0.60
2022-10-02T10:10:43.025Z,0.50
2022-10-02T10:13:32.350Z,0.50
2022-10-02T10:16:19.067Z,0.67
2022-10-02T10:18:56.322Z,0.50
2022-10-02T10:21:39.168Z,0.53
2022-10-02T10:24:30.000Z,0.60
2022-10-02T10:27:08.214Z,0.53
2022-10-02T10:29:53.871Z,0.57
2022-10-02T10:32:39.437Z,0.80
2022-10-02T10:35:14.982Z,0.60
2022-10-02T10:38:06.193Z,0.50
2022-10-02T10:40:38.081Z,0.40
2022-10-02T10:43:23.956Z,0.50
2022-10-02T10:46:08.416Z,0.40
2022-10-02T10:48:48.550Z,0.50
2022-10-02T10:51:30.532Z,0.60
2022-10-02T10:54:06.196Z,0.60
2022-10-02T10:56:38.720Z,0.43
2022-10-02T10:59:25.433Z,0.33
2022-10-02T11:02:03.123Z,0.60
2022-10-02T11:04:52.160Z,0.97
2022-10-02T11:07:26.273Z,0.40
2022-10-02T11:10:02.074Z,0.30
2022-10-02T11:12:43.852Z,0.40
2022-10-02T11:15:29.385Z,0.70
2022-10-02T11:18:14.601Z,0.40
2022-10-02T11:20:54.326Z,0.60
2022-10-02T11:23:28.695Z,0.60
2022-10-02T11:26:12.589Z,0.43
2022-10-02T11:28:56.256Z,0.50
2022-10-02T11:31:30.556Z,0.60
2022-10-02T11:34:13.491Z,0.50
2022-10-02T11:36:52.780Z,0.40
2022-10-02T11:39:32.087Z,0.27
2022-10-02T11:42:12.360Z,0.70
2022-10-02T11:44:51.304Z,0.40
2022-10-02T11:47:31.326Z,0.50
2022-10-02T11:50:21.089Z,0.50
2022-10-02T11:53:02.125Z,0.37
2022-10-02T11:55:37.673Z,0.40
2022-10-02T11:58:11.888Z,0.30
2022-10-02T12:00:58.728Z,0.53
2022-10-02T12:03:30.483Z,0.47
2022-10-02T12:06:04.242Z,0.50
2022-10-02T12:08:42.800Z,0.50
2022-10-02T12:11:13.965Z,0.60
2022-10-02T12:13:48.163Z,0.50
2022-10-02T12:16:21.393Z,0.40
2022-10-02T12:18:56.001Z,0.60
2022-10-02T12:22:01.960Z,0.40
2022-10-02T12:24:54.115Z,0.63
2022-10-02T12:27:25.748Z,0.57
2022-10-02T12:30:00.717Z,0.50
2022-10-02T12:32:36.456Z,0.60
2022-10-02T12:35:11.253Z,0.40
2022-10-02T12:37:43.653Z,0.50
2022-10-02T12:40:21.704Z,0.40
2022-10-02T12:43:12.972Z,0.53
2022-10-02T12:45:58.431Z,0.50
2022-10-02T12:48:45.900Z,0.60
2022-10-02T12:51:35.445Z,0.53
2022-10-02T12:54:16.169Z,0.50
2022-10-02T12:57:11.108Z,0.60
2022-10-02T12:59:46.224Z,0.60
2022-10-02T13:02:59.978Z,0.50
2022-10-02T13:05:46.816Z,0.60
2022-10-02T13:08:42.752Z,0.70
2022-10-02T13:11:14.985Z,0.67
2022-10-02T13:13:52.865Z,0.60
2022-10-02T13:16:25.760Z,0.60
2022-10-02T13:19:00.566Z,0.50
2022-10-02T13:21:35.623Z,0.60
2022-10-02T13:24:09.032Z,0.60
2022-10-02T13:26:42.410Z,0.70
2022-10-02T13:29:20.091Z,0.63
2022-10-02T13:31:56.523Z,0.70
2022-10-02T13:34:30.985Z,0.90
2022-10-02T13:37:07.777Z,1.10
2022-10-02T13:39:43.300Z,0.90
2022-10-02T13:42:17.946Z,0.70
2022-10-02T13:44:52.093Z,0.80
2022-10-02T13:47:28.176Z,0.83
2022-10-02T13:50:02.094Z,0.90
2022-10-02T13:52:33.372Z,0.90
2022-10-02T13:55:18.544Z,0.80
2022-10-02T13:57:51.388Z,1.00
2022-10-02T14:00:41.165Z,0.80
2022-10-02T14:03:11.917Z,0.90
2022-10-02T14:05:43.208Z,0.83
2022-10-02T14:08:23.119Z,0.70
2022-10-02T14:10:56.996Z,0.90
2022-10-02T14:13:34.468Z,1.00
2022-10-02T14:16:08.832Z,0.80
2022-10-02T14:18:49.880Z,0.70
2022-10-02T14:21:22.772Z,0.63
2022-10-02T14:23:59.804Z,0.80
2022-10-02T14:26:33.915Z,0.90
2022-10-02T14:29:09.306Z,0.77
2022-10-02T14:31:54.880Z,0.80
2022-10-02T14:34:35.728Z,0.63
2022-10-02T14:37:25.901Z,0.70
2022-10-02T14:39:54.042Z,0.53
2022-10-02T14:42:30.493Z,0.80
2022-10-02T14:45:21.232Z,0.90
2022-10-02T14:48:03.700Z,0.77
2022-10-02T14:50:40.497Z,0.60
2022-10-02T14:53:27.607Z,0.83
2022-10-02T14:56:01.895Z,0.70
2022-10-02T14:58:33.245Z,0.63
2022-10-02T15:01:18.114Z,1.07
2022-10-02T15:03:55.329Z,0.80
2022-10-02T15:06:30.137Z,0.60
2022-10-02T15:09:00.771Z,0.50
2022-10-02T15:11:47.351Z,0.60
2022-10-02T15:14:18.520Z,0.70
2022-10-02T15:17:04.770Z,0.80
2022-10-02T15:19:38.678Z,0.68
2022-10-02T15:22:09.205Z,0.80
2022-10-02T15:24:41.401Z,0.60
2022-10-02T15:27:17.610Z,0.70
2022-10-02T15:29:50.288Z,0.73
2022-10-02T15:32:28.464Z,0.80
2022-10-02T15:35:02.488Z,0.90
2022-10-02T15:37:36.697Z,1.20
2022-10-02T15:40:08.766Z,1.00
2022-10-02T15:42:49.422Z,1.00
2022-10-02T15:45:29.062Z,1.10
2022-10-02T15:48:15.623Z,1.80
2022-10-02T15:50:49.812Z,1.23
2022-10-02T15:53:24.180Z,1.70
2022-10-02T15:55:56.223Z,1.70
2022-10-02T15:58:34.056Z,1.27
2022-10-02T16:01:18.503Z,1.07
2022-10-02T16:03:50.798Z,1.00
2022-10-02T16:06:23.796Z,1.00
2022-10-02T16:09:01.450Z,1.30
2022-10-02T16:11:36.037Z,1.20
2022-10-02T16:14:07.610Z,1.30
2022-10-02T16:16:55.277Z,0.90
2022-10-02T16:19:28.582Z,0.90
2022-10-02T16:22:05.377Z,1.20
2022-10-02T16:24:50.412Z,0.97
2022-10-02T16:27:32.539Z,1.10
2022-10-02T16:30:05.286Z,1.27
2022-10-02T16:32:38.788Z,1.23
2022-10-02T16:35:17.706Z,1.03
2022-10-02T16:37:47.666Z,0.60
2022-10-02T16:40:21.940Z,0.70
2022-10-02T16:42:53.211Z,0.90
2022-10-02T16:45:38.754Z,0.90
2022-10-02T16:48:09.009Z,0.90
2022-10-02T16:50:46.262Z,0.80
2022-10-02T16:53:23.797Z,0.80
2022-10-02T16:55:58.530Z,0.70
2022-10-02T16:58:28.949Z,1.17
2022-10-02T17:00:58.732Z,0.80
2022-10-02T17:03:31.340Z,1.00
2022-10-02T17:06:01.052Z,0.70
2022-10-02T17:08:32.774Z,0.93
2022-10-02T17:11:09.728Z,0.70
2022-10-02T17:13:45.448Z,0.93
2022-10-02T17:16:20.953Z,1.07
2022-10-02T17:18:51.875Z,0.80
2022-10-02T17:21:22.040Z,1.00
2022-10-02T17:23:57.387Z,1.10
2022-10-02T17:26:30.830Z,1.10
2022-10-02T17:29:04.529Z,1.20
2022-10-02T17:31:37.173Z,1.00
2022-10-02T17:34:16.860Z,0.90
2022-10-02T17:36:47.899Z,1.03
2022-10-02T17:39:23.139Z,1.00
2022-10-02T17:41:53.478Z,1.07
2022-10-02T17:44:26.440Z,1.57
2022-10-02T17:47:02.869Z,1.60
2022-10-02T17:49:36.226Z,1.00
2022-10-02T17:52:23.232Z,1.10
2022-10-02T17:55:15.665Z,1.30
2022-10-02T17:57:49.494Z,0.93
2022-10-02T18:00:21.888Z,0.93
2022-10-02T18:03:16.261Z,1.10
2022-10-02T18:05:51.971Z,0.80
2022-10-02T18:08:29.828Z,0.70
2022-10-02T18:11:04.160Z,0.90
2022-10-02T18:13:42.372Z,0.80
2022-10-02T18:16:24.917Z,1.10
2022-10-02T18:19:01.454Z,0.80
2022-10-02T18:21:32.825Z,0.70
2022-10-02T18:24:15.689Z,0.80
2022-10-02T18:26:51.537Z,0.80
2022-10-02T18:29:28.308Z,0.90
2022-10-02T18:32:06.857Z,0.73
2022-10-02T18:34:45.761Z,0.77
2022-10-02T18:37:20.127Z,0.53
2022-10-02T18:40:02.653Z,0.67
2022-10-02T18:42:41.604Z,0.97
2022-10-02T18:45:19.392Z,1.00
2022-10-02T18:47:52.437Z,1.50
2022-10-02T18:50:28.625Z,1.40
2022-10-02T18:53:03.504Z,0.80
2022-10-02T18:55:50.005Z,1.50
2022-10-02T18:58:24.043Z,1.40
2022-10-02T19:00:58.326Z,1.60
2022-10-02T19:03:28.345Z,0.90
2022-10-02T19:05:57.275Z,1.50
2022-10-02T19:08:26.204Z,1.33
2022-10-02T19:10:54.145Z,1.80
2022-10-02T19:13:24.391Z,0.70
2022-10-02T19:15:52.920Z,0.90
2022-10-02T19:18:21.568Z,0.90
2022-10-02T19:20:51.332Z,0.87
2022-10-02T19:23:21.918Z,0.97
2022-10-02T19:25:51.164Z,1.07
2022-10-02T19:28:20.629Z,0.90
2022-10-02T19:30:51.174Z,0.90
2022-10-02T19:33:23.281Z,0.80
2022-10-02T19:35:51.762Z,0.80
2022-10-02T19:38:25.719Z,0.63
2022-10-02T19:40:54.184Z,0.60
2022-10-02T19:43:24.549Z,0.60
2022-10-02T19:45:56.814Z,0.70
2022-10-02T19:48:26.149Z,0.87
2022-10-02T19:50:57.357Z,0.60
2022-10-02T19:53:26.072Z,0.90
2022-10-02T19:55:56.260Z,0.63
2022-10-02T19:58:25.316Z,0.60
2022-10-02T20:00:54.745Z,0.70
2022-10-02T20:03:23.190Z,0.70
2022-10-02T20:05:52.368Z,0.83
2022-10-02T20:08:22.847Z,0.70
2022-10-02T20:10:55.656Z,0.70
2022-10-02T20:13:27.803Z,0.60
2022-10-02T20:16:16.404Z,0.90
2022-10-02T20:18:44.085Z,0.80
2022-10-02T20:21:14.496Z,0.80
2022-10-02T20:23:42.846Z,0.80
2022-10-02T20:26:12.369Z,0.90
2022-10-02T20:28:43.544Z,1.40
2022-10-02T20:31:17.148Z,1.10
2022-10-02T20:33:45.824Z,1.10
2022-10-02T20:36:16.716Z,1.03
2022-10-02T20:38:47.808Z,1.10
2022-10-02T20:41:19.515Z,0.97
2022-10-02T20:43:49.048Z,0.90
2022-10-02T20:46:52.977Z,1.07
2022-10-02T20:49:40.113Z,1.23
2022-10-02T20:52:25.324Z,1.30
2022-10-02T20:54:58.646Z,1.37
2022-10-02T20:58:00.229Z,1.10
2022-10-02T21:00:29.058Z,1.10
2022-10-02T21:03:10.127Z,1.00
2022-10-02T21:06:01.921Z,1.10
2022-10-02T21:08:39.405Z,1.00
2022-10-02T21:11:14.937Z,1.00
2022-10-02T21:13:57.566Z,1.20
2022-10-02T21:16:42.320Z,1.00
2022-10-02T21:19:25.564Z,1.30
2022-10-02T21:22:15.988Z,1.20
2022-10-02T21:25:02.832Z,1.30
2022-10-02T21:27:50.760Z,1.30
2022-10-02T21:30:19.235Z,1.27
2022-10-02T21:33:00.281Z,1.20
2022-10-02T21:35:44.930Z,1.23
2022-10-02T21:38:27.963Z,1.20
2022-10-02T21:41:15.535Z,0.93
2022-10-02T21:44:03.834Z,1.20
2022-10-02T21:46:42.536Z,1.00
2022-10-02T21:49:37.116Z,0.90
2022-10-02T21:52:22.552Z,0.90
2022-10-02T21:55:04.950Z,0.90
2022-10-02T21:57:52.724Z,0.80
2022-10-02T22:00:22.000Z,1.10
2022-10-02T22:03:04.444Z,0.80
2022-10-02T22:05:43.346Z,0.80
2022-10-02T22:08:16.284Z,0.70
2022-10-02T22:10:50.604Z,0.90
2022-10-02T22:13:25.208Z,0.80
2022-10-02T22:15:55.984Z,0.70
2022-10-02T22:18:27.498Z,1.00
2022-10-02T22:21:04.571Z,0.80
2022-10-02T22:23:41.969Z,1.00
2022-10-02T22:26:18.591Z,0.90
2022-10-02T22:28:49.532Z,0.90
2022-10-02T22:31:34.875Z,1.00
2022-10-02T22:34:22.334Z,1.30
2022-10-02T22:37:00.325Z,1.50
2022-10-02T22:39:29.909Z,1.50
2022-10-02T22:42:00.648Z,1.37
2022-10-02T22:44:31.384Z,1.00
2022-10-02T22:47:02.624Z,0.80
2022-10-02T22:49:33.088Z,1.00
2022-10-02T22:52:03.208Z,0.90
2022-10-02T22:54:33.748Z,0.60
2022-10-02T22:57:09.125Z,0.60
2022-10-02T22:59:40.761Z,0.50
2022-10-02T23:02:10.505Z,0.63
2022-10-02T23:04:40.190Z,0.60
2022-10-02T23:07:11.928Z,0.50
2022-10-02T23:09:42.358Z,0.70
2022-10-02T23:12:12.789Z,0.60
2022-10-02T23:14:48.967Z,0.60
2022-10-02T23:17:18.905Z,0.70
2022-10-02T23:19:48.512Z,0.80
2022-10-02T23:22:20.927Z,0.70
2022-10-02T23:24:52.510Z,0.50
2022-10-02T23:27:22.816Z,0.60
2022-10-02T23:29:55.051Z,0.70
2022-10-02T23:32:26.879Z,0.50
2022-10-02T23:34:58.937Z,0.43
2022-10-02T23:37:28.859Z,0.30
2022-10-02T23:40:03.630Z,0.23
2022-10-02T23:42:34.487Z,0.40
2022-10-02T23:45:08.283Z,0.40
2022-10-02T23:47:43.279Z,0.40
2022-10-02T23:50:19.549Z,0.50
2022-10-02T23:52:55.002Z,0.47
2022-10-02T23:55:41.237Z,0.40
2022-10-02T23:58:14.185Z,0.50
